sensor_id;sensor_type;location;lat;lon;timestamp;pressure;altitude;pressure_sealevel;temperature;humidity
43691;BME280;29293;52.190;21.226;2023-05-13T00:09:58;101124.41;;;7.78;90.61
43691;BME280;29293;52.190;21.226;2023-05-13T00:25:06;101129.14;;;7.50;95.54
43691;BME280;29293;52.190;21.226;2023-05-13T00:40:18;101127.73;;;7.19;99.89
43691;BME280;29293;52.190;21.226;2023-05-13T00:55:26;101120.33;;;6.97;100.00
43691;BME280;29293;52.190;21.226;2023-05-13T01:10:37;101133.64;;;6.97;100.00
43691;BME280;29293;52.190;21.226;2023-05-13T01:25:45;101138.39;;;6.96;100.00
43691;BME280;29293;52.190;21.226;2023-05-13T01:40:53;101136.44;;;6.86;100.00
43691;BME280;29293;52.190;21.226;2023-05-13T01:56:01;101138.17;;;6.76;100.00
43691;BME280;29293;52.190;21.226;2023-05-13T02:11:08;101149.14;;;6.66;100.00
43691;BME280;29293;52.190;21.226;2023-05-13T02:26:15;101165.06;;;6.62;100.00
43691;BME280;29293;52.190;21.226;2023-05-13T02:41:21;101157.83;;;6.57;100.00
43691;BME280;29293;52.190;21.226;2023-05-13T02:56:28;101153.18;;;6.61;100.00
43691;BME280;29293;52.190;21.226;2023-05-13T03:11:35;101151.16;;;6.80;100.00
43691;BME280;29293;52.190;21.226;2023-05-13T03:26:42;101151.89;;;6.96;100.00
43691;BME280;29293;52.190;21.226;2023-05-13T03:41:48;101155.88;;;6.88;100.00
43691;BME280;29293;52.190;21.226;2023-05-13T03:56:55;101160.89;;;6.63;100.00
43691;BME280;29293;52.190;21.226;2023-05-13T04:12:02;101175.29;;;6.46;100.00
43691;BME280;29293;52.190;21.226;2023-05-13T04:27:09;101185.81;;;6.57;100.00
43691;BME280;29293;52.190;21.226;2023-05-13T04:42:16;101191.32;;;7.23;100.00
43691;BME280;29293;52.190;21.226;2023-05-13T04:57:22;101196.85;;;8.11;100.00
43691;BME280;29293;52.190;21.226;2023-05-13T05:12:29;101185.20;;;9.69;100.00
43691;BME280;29293;52.190;21.226;2023-05-13T05:27:36;101203.38;;;10.87;100.00
43691;BME280;29293;52.190;21.226;2023-05-13T05:42:43;101207.63;;;11.35;100.00
43691;BME280;29293;52.190;21.226;2023-05-13T05:57:50;101186.37;;;12.28;99.73
43691;BME280;29293;52.190;21.226;2023-05-13T06:12:57;101195.65;;;12.92;88.48
43691;BME280;29293;52.190;21.226;2023-05-13T06:28:04;101196.09;;;13.59;76.30
43691;BME280;29293;52.190;21.226;2023-05-13T06:43:11;101188.08;;;15.07;67.32
43691;BME280;29293;52.190;21.226;2023-05-13T06:58:18;101188.80;;;17.40;57.27
43691;BME280;29293;52.190;21.226;2023-05-13T07:13:25;101178.39;;;18.81;48.32
43691;BME280;29293;52.190;21.226;2023-05-13T07:28:32;101178.88;;;19.47;42.90
43691;BME280;29293;52.190;21.226;2023-05-13T07:43:39;101171.84;;;19.82;40.83
43691;BME280;29293;52.190;21.226;2023-05-13T07:58:46;101164.44;;;20.44;40.15
43691;BME280;29293;52.190;21.226;2023-05-13T08:13:54;101162.14;;;20.91;38.02
43691;BME280;29293;52.190;21.226;2023-05-13T08:29:07;101153.32;;;21.21;36.91
43691;BME280;29293;52.190;21.226;2023-05-13T08:44:18;101157.98;;;22.06;34.71
43691;BME280;29293;52.190;21.226;2023-05-13T08:59:34;101150.96;;;22.62;32.39
43691;BME280;29293;52.190;21.226;2023-05-13T09:14:42;101137.30;;;22.88;30.69
43691;BME280;29293;52.190;21.226;2023-05-13T09:29:59;101137.19;;;23.17;29.39
43691;BME280;29293;52.190;21.226;2023-05-13T09:45:08;101125.94;;;23.52;29.20
43691;BME280;29293;52.190;21.226;2023-05-13T10:00:16;101114.81;;;23.43;29.10
43691;BME280;29293;52.190;21.226;2023-05-13T10:15:26;101098.72;;;23.33;30.61
43691;BME280;29293;52.190;21.226;2023-05-13T10:30:33;101094.73;;;24.06;29.46
43691;BME280;29293;52.190;21.226;2023-05-13T10:45:44;101090.69;;;23.12;30.03
43691;BME280;29293;52.190;21.226;2023-05-13T11:00:51;101093.88;;;22.29;30.55
43691;BME280;29293;52.190;21.226;2023-05-13T11:15:58;101086.70;;;21.67;31.98
43691;BME280;29293;52.190;21.226;2023-05-13T11:31:17;101079.66;;;22.69;30.29
43691;BME280;29293;52.190;21.226;2023-05-13T11:46:24;101092.52;;;21.34;32.29
43691;BME280;29293;52.190;21.226;2023-05-13T12:01:31;101091.77;;;21.61;32.49
43691;BME280;29293;52.190;21.226;2023-05-13T12:16:38;101072.52;;;21.60;32.04
43691;BME280;29293;52.190;21.226;2023-05-13T12:32:02;101054.30;;;22.62;31.26
43691;BME280;29293;52.190;21.226;2023-05-13T12:47:09;101047.71;;;23.45;29.06
43691;BME280;29293;52.190;21.226;2023-05-13T13:02:17;101041.66;;;23.31;28.67
43691;BME280;29293;52.190;21.226;2023-05-13T13:17:24;101032.17;;;22.79;29.58
43691;BME280;29293;52.190;21.226;2023-05-13T13:32:31;101031.75;;;22.40;30.87
43691;BME280;29293;52.190;21.226;2023-05-13T13:47:39;101030.59;;;22.90;30.31
43691;BME280;29293;52.190;21.226;2023-05-13T14:02:46;101030.19;;;22.21;31.81
43691;BME280;29293;52.190;21.226;2023-05-13T14:17:53;101034.55;;;20.52;35.67
43691;BME280;29293;52.190;21.226;2023-05-13T14:48:15;100998.75;;;21.68;36.11
43691;BME280;29293;52.190;21.226;2023-05-13T15:03:23;101011.32;;;22.13;33.47
43691;BME280;29293;52.190;21.226;2023-05-13T15:18:30;101025.68;;;19.83;37.29
43691;BME280;29293;52.190;21.226;2023-05-13T15:33:37;101034.39;;;18.87;39.40
43691;BME280;29293;52.190;21.226;2023-05-13T15:48:45;101016.80;;;18.94;39.89
43691;BME280;29293;52.190;21.226;2023-05-13T16:03:51;101007.39;;;19.15;39.27
43691;BME280;29293;52.190;21.226;2023-05-13T16:18:59;100998.17;;;19.30;38.96
43691;BME280;29293;52.190;21.226;2023-05-13T16:34:09;100981.98;;;19.37;37.67
43691;BME280;29293;52.190;21.226;2023-05-13T16:49:15;100980.24;;;19.35;37.68
43691;BME280;29293;52.190;21.226;2023-05-13T17:04:22;100983.15;;;19.38;38.52
43691;BME280;29293;52.190;21.226;2023-05-13T17:19:35;101000.14;;;19.13;39.73
43691;BME280;29293;52.190;21.226;2023-05-13T17:34:44;101014.19;;;18.64;40.83
43691;BME280;29293;52.190;21.226;2023-05-13T17:49:52;101029.56;;;17.98;42.39
43691;BME280;29293;52.190;21.226;2023-05-13T18:04:59;101030.88;;;17.04;44.59
43691;BME280;29293;52.190;21.226;2023-05-13T18:20:08;101021.15;;;16.08;45.73
43691;BME280;29293;52.190;21.226;2023-05-13T18:35:17;101037.73;;;15.22;48.03
43691;BME280;29293;52.190;21.226;2023-05-13T18:50:26;101047.34;;;14.21;51.96
43691;BME280;29293;52.190;21.226;2023-05-13T19:05:34;101051.06;;;13.33;54.51
43691;BME280;29293;52.190;21.226;2023-05-13T19:20:43;101052.55;;;12.62;56.92
43691;BME280;29293;52.190;21.226;2023-05-13T19:35:51;101053.95;;;11.93;59.43
43691;BME280;29293;52.190;21.226;2023-05-13T19:50:58;101061.77;;;11.48;62.57
43691;BME280;29293;52.190;21.226;2023-05-13T20:06:05;101062.86;;;11.11;65.98
43691;BME280;29293;52.190;21.226;2023-05-13T20:21:12;101063.41;;;10.80;71.32
43691;BME280;29293;52.190;21.226;2023-05-13T20:36:19;101061.19;;;10.53;77.64
43691;BME280;29293;52.190;21.226;2023-05-13T20:51:29;101053.49;;;10.36;80.37
43691;BME280;29293;52.190;21.226;2023-05-13T21:06:36;101045.60;;;10.25;84.62
43691;BME280;29293;52.190;21.226;2023-05-13T21:21:43;101045.55;;;10.09;89.57
43691;BME280;29293;52.190;21.226;2023-05-13T21:36:51;101035.03;;;9.90;94.05
43691;BME280;29293;52.190;21.226;2023-05-13T21:51:58;101034.21;;;9.68;98.95
43691;BME280;29293;52.190;21.226;2023-05-13T22:07:05;101036.30;;;9.46;100.00
43691;BME280;29293;52.190;21.226;2023-05-13T22:22:13;101042.05;;;9.22;100.00
43691;BME280;29293;52.190;21.226;2023-05-13T22:37:20;101035.91;;;8.95;100.00
43691;BME280;29293;52.190;21.226;2023-05-13T22:52:27;101033.01;;;8.70;100.00
43691;BME280;29293;52.190;21.226;2023-05-13T23:07:34;101039.02;;;8.53;100.00
43691;BME280;29293;52.190;21.226;2023-05-13T23:22:41;101037.42;;;8.39;100.00
43691;BME280;29293;52.190;21.226;2023-05-13T23:37:48;101034.20;;;8.22;100.00
43691;BME280;29293;52.190;21.226;2023-05-13T23:52:55;101025.61;;;8.00;100.00
